createdAt,value
2016-09-08T00:00:52.595Z,0
2016-09-08T00:02:07.224Z,0
2016-09-08T00:02:52.403Z,0
2016-09-08T00:04:07.273Z,0
2016-09-08T00:05:07.303Z,0
2016-09-08T00:05:52.409Z,0
2016-09-08T00:06:52.429Z,0
2016-09-08T00:07:52.456Z,0
2016-09-08T00:08:52.478Z,0
2016-09-08T00:10:07.455Z,0
2016-09-08T00:10:52.553Z,0
2016-09-08T00:11:52.555Z,0
2016-09-08T00:12:52.604Z,0
2016-09-08T00:13:52.610Z,0
2016-09-08T00:14:52.925Z,0
2016-09-08T00:15:52.669Z,0
2016-09-08T00:16:52.694Z,0
2016-09-08T00:17:52.745Z,0
2016-09-08T00:18:52.731Z,0
2016-09-08T00:19:52.782Z,0
2016-09-08T00:21:07.719Z,0
2016-09-08T00:21:53.126Z,0
2016-09-08T00:22:52.858Z,0
2016-09-08T00:23:52.870Z,0
2016-09-08T00:24:52.885Z,0
2016-09-08T00:25:52.917Z,0
2016-09-08T00:26:52.961Z,0
2016-09-08T00:27:52.989Z,0
2016-09-08T00:28:53.017Z,0
2016-09-08T00:29:53.031Z,0
2016-09-08T00:30:53.045Z,0
2016-09-08T00:31:53.412Z,0
2016-09-08T00:33:53.429Z,0
2016-09-08T00:34:53.156Z,0
2016-09-08T00:35:53.170Z,0
2016-09-08T00:37:53.223Z,0
2016-09-08T00:38:53.276Z,0
2016-09-08T00:39:53.279Z,0
2016-09-08T00:40:53.305Z,0
2016-09-08T00:41:53.341Z,0
2016-09-08T00:42:53.369Z,0
2016-09-08T00:45:08.357Z,0
2016-09-08T00:45:53.434Z,0
2016-09-08T00:47:53.478Z,0
2016-09-08T00:49:08.438Z,0
2016-09-08T00:49:53.533Z,0
2016-09-08T00:50:53.565Z,0
2016-09-08T00:52:08.623Z,0
2016-09-08T00:52:53.615Z,0
2016-09-08T00:53:53.698Z,0
2016-09-08T00:54:53.667Z,0
2016-09-08T00:55:53.718Z,0
2016-09-08T00:56:53.717Z,0
2016-09-08T00:57:53.734Z,0
2016-09-08T00:58:53.774Z,0
2016-09-08T00:59:53.805Z,0
2016-09-08T01:00:53.810Z,0
2016-09-08T01:01:53.850Z,0
2016-09-08T01:02:53.878Z,0
2016-09-08T01:03:53.897Z,0
2016-09-08T01:04:53.914Z,0
2016-09-08T01:05:53.961Z,0
2016-09-08T01:06:53.988Z,0
2016-09-08T01:07:54.001Z,0
2016-09-08T01:08:54.024Z,0
2016-09-08T01:09:54.096Z,0
2016-09-08T01:10:54.074Z,0
2016-09-08T01:11:54.098Z,0
2016-09-08T01:12:54.124Z,0
2016-09-08T01:13:54.186Z,0
2016-09-08T01:14:54.190Z,0
2016-09-08T01:15:54.201Z,0
2016-09-08T01:16:54.548Z,0
2016-09-08T01:18:09.179Z,0
2016-09-08T01:18:54.295Z,0
2016-09-08T01:19:54.309Z,0
2016-09-08T01:20:54.323Z,0
2016-09-08T01:21:54.349Z,0
2016-09-08T01:22:54.391Z,0
2016-09-08T01:24:09.325Z,0
2016-09-08T01:24:54.452Z,0
2016-09-08T01:25:54.452Z,0
2016-09-08T01:26:54.492Z,0
2016-09-08T01:27:54.503Z,0
2016-09-08T01:28:54.530Z,0
2016-09-08T01:29:54.561Z,0
2016-09-08T01:30:54.615Z,0
2016-09-08T01:31:54.614Z,0
2016-09-08T01:32:54.663Z,0
2016-09-08T01:33:54.653Z,0
2016-09-08T01:34:54.696Z,0
2016-09-08T01:35:54.711Z,0
2016-09-08T01:36:54.755Z,0
2016-09-08T01:37:54.775Z,0
2016-09-08T01:38:54.808Z,0
2016-09-08T01:40:09.745Z,0
2016-09-08T01:41:09.759Z,0
2016-09-08T01:41:54.874Z,0
2016-09-08T01:42:54.904Z,0
2016-09-08T01:43:54.926Z,0
2016-09-08T01:44:54.941Z,0
2016-09-08T01:47:55.026Z,0
2016-09-08T01:48:55.115Z,0
2016-09-08T01:49:55.085Z,0
2016-09-08T01:50:55.089Z,0
2016-09-08T01:52:10.049Z,0
2016-09-08T01:52:55.149Z,0
2016-09-08T01:53:55.188Z,0
2016-09-08T01:55:10.227Z,0
2016-09-08T01:56:10.156Z,0
2016-09-08T01:56:55.242Z,0
2016-09-08T01:57:55.283Z,0
2016-09-08T01:58:55.302Z,0
2016-09-08T02:00:10.256Z,0
2016-09-08T02:00:55.355Z,0
2016-09-08T02:02:55.401Z,0
2016-09-08T02:03:55.437Z,0
2016-09-08T02:04:55.450Z,0
2016-09-08T02:05:55.508Z,0
2016-09-08T02:06:55.515Z,0
2016-09-08T02:07:55.521Z,0
2016-09-08T02:08:55.556Z,0
2016-09-08T02:09:55.595Z,0
2016-09-08T02:10:55.607Z,0
2016-09-08T02:12:10.544Z,0
2016-09-08T02:12:55.653Z,0
2016-09-08T02:14:10.646Z,0
2016-09-08T02:14:55.702Z,0
2016-09-08T02:15:55.727Z,0
2016-09-08T02:16:55.751Z,0
2016-09-08T02:17:55.800Z,0
2016-09-08T02:18:55.874Z,0
2016-09-08T02:19:55.837Z,0
2016-09-08T02:20:55.874Z,0
2016-09-08T02:21:55.885Z,0
2016-09-08T02:22:55.936Z,0
2016-09-08T02:23:55.938Z,0
2016-09-08T02:24:55.980Z,0
2016-09-08T02:25:56.012Z,0
2016-09-08T02:27:10.929Z,0
2016-09-08T02:28:10.957Z,0
2016-09-08T02:28:56.055Z,0
2016-09-08T02:29:56.084Z,0
2016-09-08T02:31:11.042Z,0
2016-09-08T02:31:56.147Z,0
2016-09-08T02:32:56.155Z,0
2016-09-08T02:33:56.222Z,0
2016-09-08T02:34:56.206Z,0
2016-09-08T02:35:56.265Z,0
2016-09-08T02:36:56.256Z,0
2016-09-08T02:37:56.328Z,0
2016-09-08T02:38:56.322Z,0
2016-09-08T02:39:56.338Z,0
2016-09-08T02:41:11.287Z,0
2016-09-08T02:41:56.414Z,0
2016-09-08T02:42:56.435Z,0
2016-09-08T02:43:56.449Z,0
2016-09-08T02:44:56.461Z,0
2016-09-08T02:45:56.486Z,0
2016-09-08T02:46:56.523Z,0
2016-09-08T02:47:56.552Z,0
2016-09-08T02:48:56.593Z,0
2016-09-08T02:49:56.601Z,0
2016-09-08T02:50:56.636Z,0
2016-09-08T02:51:56.636Z,0
2016-09-08T02:52:56.687Z,0
2016-09-08T02:53:56.712Z,0
2016-09-08T02:54:56.712Z,0
2016-09-08T02:55:56.751Z,0
2016-09-08T02:57:11.693Z,0
2016-09-08T02:57:56.795Z,0
2016-09-08T02:59:11.787Z,0
2016-09-08T03:00:11.763Z,0
2016-09-08T03:00:56.932Z,0
2016-09-08T03:02:11.829Z,0
2016-09-08T03:03:56.956Z,0
2016-09-08T03:04:56.981Z,0
2016-09-08T03:05:57.025Z,0
2016-09-08T03:06:57.015Z,0
2016-09-08T03:07:57.058Z,0
2016-09-08T03:09:11.994Z,0
2016-09-08T03:09:57.095Z,0
2016-09-08T03:10:57.124Z,0
2016-09-08T03:11:57.177Z,0
2016-09-08T03:12:57.167Z,0
2016-09-08T03:13:57.197Z,0
2016-09-08T03:15:12.158Z,0
2016-09-08T03:15:57.256Z,0
2016-09-08T03:16:57.285Z,0
2016-09-08T03:17:57.295Z,0
2016-09-08T03:18:57.324Z,0
2016-09-08T03:19:57.353Z,0
2016-09-08T03:20:57.377Z,0
2016-09-08T03:22:12.329Z,0
2016-09-08T03:22:57.426Z,0
2016-09-08T03:23:57.659Z,0
2016-09-08T03:24:57.465Z,0
2016-09-08T03:27:12.449Z,0
2016-09-08T03:27:57.555Z,0
2016-09-08T03:28:57.575Z,0
2016-09-08T03:30:12.535Z,0
2016-09-08T03:31:12.554Z,0
2016-09-08T03:31:57.646Z,0
2016-09-08T03:32:57.669Z,0
2016-09-08T03:33:57.697Z,0
2016-09-08T03:34:57.739Z,0
2016-09-08T03:35:57.751Z,0
2016-09-08T03:36:57.788Z,0
2016-09-08T03:37:57.806Z,0
2016-09-08T03:38:57.848Z,0
2016-09-08T03:40:57.872Z,0
2016-09-08T03:41:57.893Z,0
2016-09-08T03:42:57.944Z,0
2016-09-08T03:43:57.964Z,0
2016-09-08T03:44:57.972Z,0
2016-09-08T03:45:57.996Z,0
2016-09-08T03:47:12.946Z,0
2016-09-08T03:47:58.059Z,0
2016-09-08T03:48:58.084Z,0
2016-09-08T03:49:58.124Z,0
2016-09-08T03:50:58.127Z,4
2016-09-08T03:51:58.145Z,0
2016-09-08T03:52:58.175Z,0
2016-09-08T03:53:58.221Z,4
2016-09-08T03:55:58.282Z,4
2016-09-08T03:56:58.280Z,4
2016-09-08T03:57:58.312Z,8
2016-09-08T03:58:58.324Z,8
2016-09-08T03:59:58.358Z,8
2016-09-08T04:00:58.386Z,8
2016-09-08T04:02:13.322Z,8
2016-09-08T04:02:58.434Z,12
2016-09-08T04:03:58.449Z,12
2016-09-08T04:05:58.499Z,16
2016-09-08T04:06:58.524Z,24
2016-09-08T04:08:13.483Z,28
2016-09-08T04:08:58.586Z,32
2016-09-08T04:09:58.595Z,36
2016-09-08T04:10:58.623Z,44
2016-09-08T04:11:58.655Z,52
2016-09-08T04:12:58.696Z,60
2016-09-08T04:13:58.724Z,68
2016-09-08T04:14:58.724Z,76
2016-09-08T04:15:58.764Z,88
2016-09-08T04:16:58.772Z,96
2016-09-08T04:17:58.826Z,108
2016-09-08T04:18:58.831Z,124
2016-09-08T04:20:58.890Z,156
2016-09-08T04:21:58.899Z,172
2016-09-08T04:22:58.923Z,192
2016-09-08T04:24:13.887Z,216
2016-09-08T04:24:58.979Z,232
2016-09-08T04:25:59.008Z,252
2016-09-08T04:26:59.023Z,272
2016-09-08T04:27:59.055Z,296
2016-09-08T04:28:59.079Z,320
2016-09-08T04:29:59.104Z,344
2016-09-08T04:31:14.048Z,380
2016-09-08T04:31:59.142Z,404
2016-09-08T04:32:59.172Z,436
2016-09-08T04:34:14.122Z,472
2016-09-08T04:35:14.143Z,504
2016-09-08T04:35:59.246Z,536
2016-09-08T04:36:59.279Z,580
2016-09-08T04:38:14.216Z,632
2016-09-08T04:38:59.340Z,664
2016-09-08T04:39:59.360Z,708
2016-09-08T04:40:59.393Z,760
2016-09-08T04:41:59.410Z,808
2016-09-08T04:42:59.439Z,868
2016-09-08T04:43:59.483Z,924
2016-09-08T04:44:59.468Z,988
2016-09-08T04:45:59.521Z,1056
2016-09-08T04:46:59.531Z,1120
2016-09-08T04:48:14.468Z,1208
2016-09-08T04:48:59.988Z,1268
2016-09-08T04:50:14.524Z,1364
2016-09-08T04:50:59.620Z,1424
2016-09-08T04:51:59.655Z,1508
2016-09-08T04:52:59.671Z,1588
2016-09-08T04:54:14.627Z,1700
2016-09-08T04:54:59.718Z,1768
2016-09-08T04:55:59.780Z,1860
2016-09-08T04:56:59.770Z,1952
2016-09-08T04:57:59.802Z,2044
2016-09-08T04:58:59.847Z,2144
2016-09-08T04:59:59.858Z,2248
2016-09-08T05:03:14.845Z,2600
2016-09-08T05:04:59.989Z,2796
2016-09-08T05:06:14.915Z,2952
2016-09-08T05:07:00.050Z,3040
2016-09-08T05:09:00.077Z,3284
2016-09-08T05:11:00.137Z,3480
2016-09-08T05:12:00.171Z,3556
2016-09-08T05:13:00.166Z,3656
2016-09-08T05:14:00.213Z,3768
2016-09-08T05:15:00.222Z,3952
2016-09-08T05:16:00.251Z,4152
2016-09-08T05:17:00.282Z,4264
2016-09-08T05:18:00.294Z,4392
2016-09-08T05:19:00.327Z,4512
2016-09-08T05:20:00.364Z,4628
2016-09-08T05:21:00.390Z,4756
2016-09-08T05:22:15.322Z,4916
2016-09-08T05:23:00.420Z,5036
2016-09-08T05:24:00.465Z,5252
2016-09-08T05:25:00.529Z,5740
2016-09-08T05:26:00.539Z,7832
2016-09-08T05:27:00.826Z,8692
2016-09-08T05:28:15.484Z,5784
2016-09-08T05:29:00.601Z,5828
2016-09-08T05:30:00.619Z,6088
2016-09-08T05:31:00.637Z,6116
2016-09-08T05:32:00.639Z,6336
2016-09-08T05:33:00.689Z,6428
2016-09-08T05:34:00.694Z,6396
2016-09-08T05:35:00.757Z,6520
2016-09-08T05:36:00.812Z,6624
2016-09-08T05:37:15.692Z,6864
2016-09-08T05:38:00.812Z,7092
2016-09-08T05:39:00.829Z,7072
2016-09-08T05:40:00.870Z,7280
2016-09-08T05:41:15.791Z,7404
2016-09-08T05:42:00.909Z,7424
2016-09-08T05:43:00.937Z,7484
2016-09-08T05:44:00.960Z,8036
2016-09-08T05:45:00.989Z,10552
2016-09-08T05:46:01.009Z,12604
2016-09-08T05:47:01.036Z,10428
2016-09-08T05:48:01.075Z,8172
2016-09-08T05:49:01.083Z,9208
2016-09-08T05:50:01.121Z,11176
2016-09-08T05:51:01.126Z,21088
2016-09-08T05:52:16.096Z,33216
2016-09-08T05:53:01.183Z,33536
2016-09-08T05:54:01.218Z,34688
2016-09-08T05:56:01.392Z,30208
2016-09-08T05:57:16.216Z,28864
2016-09-08T05:58:01.309Z,29024
2016-09-08T05:59:01.359Z,30304
2016-09-08T06:00:01.364Z,32032
2016-09-08T06:01:01.385Z,36288
2016-09-08T06:02:01.424Z,39104
2016-09-08T06:03:01.456Z,39456
2016-09-08T06:04:01.502Z,39456
2016-09-08T06:05:01.532Z,39808
2016-09-08T06:07:01.575Z,43008
2016-09-08T06:08:01.586Z,43168
2016-09-08T06:09:16.552Z,44640
2016-09-08T06:10:01.663Z,45344
2016-09-08T06:11:01.701Z,46048
2016-09-08T06:12:01.714Z,46496
2016-09-08T06:13:01.747Z,47456
2016-09-08T06:14:16.705Z,46944
2016-09-08T06:15:01.820Z,46176
2016-09-08T06:16:01.864Z,43168
2016-09-08T06:18:01.910Z,46272
2016-09-08T06:19:01.932Z,48768
2016-09-08T06:21:02.017Z,52192
2016-09-08T06:22:02.046Z,51264
2016-09-08T06:23:02.067Z,52256
2016-09-08T06:24:02.090Z,54144
2016-09-08T06:25:17.229Z,53952
2016-09-08T06:26:02.163Z,53376
2016-09-08T06:27:02.195Z,53312
2016-09-08T06:29:02.275Z,55392
2016-09-08T06:30:17.233Z,56640
2016-09-08T06:31:02.336Z,55264
2016-09-08T06:32:02.369Z,55584
2016-09-08T06:33:02.390Z,55712
2016-09-08T06:34:02.436Z,56864
2016-09-08T06:35:02.468Z,56832
2016-09-08T06:36:02.517Z,56736
2016-09-08T06:37:02.575Z,58592
2016-09-08T06:39:02.600Z,55872
2016-09-08T06:40:02.663Z,57376
2016-09-08T06:41:17.579Z,55872
2016-09-08T06:42:02.701Z,56096
2016-09-08T06:43:02.739Z,57696
2016-09-08T06:44:02.765Z,56544
2016-09-08T06:45:02.791Z,58656
2016-09-08T06:46:02.823Z,60864
2016-09-08T06:47:02.865Z,59968
2016-09-08T06:48:02.892Z,56064
2016-09-08T06:49:02.954Z,58304
2016-09-08T06:50:02.985Z,61696
2016-09-08T06:51:02.997Z,60224
2016-09-08T06:52:03.056Z,60896
2016-09-08T06:53:03.072Z,62496
2016-09-08T06:54:03.107Z,60544
2016-09-08T06:56:03.197Z,61856
2016-09-08T06:57:18.134Z,62048
2016-09-08T06:58:03.253Z,63872
2016-09-08T06:59:03.314Z,64288
2016-09-08T07:00:03.321Z,62176
2016-09-08T07:01:03.363Z,61696
2016-09-08T07:02:18.324Z,59008
2016-09-08T07:03:03.427Z,60448
2016-09-08T07:04:03.455Z,60512
2016-09-08T07:05:03.499Z,60064
2016-09-08T07:06:18.464Z,60800
2016-09-08T07:07:03.602Z,60352
2016-09-08T07:08:03.617Z,59072
2016-09-08T07:09:03.648Z,58592
2016-09-08T07:10:03.975Z,59488
2016-09-08T07:11:03.711Z,61216
2016-09-08T07:13:18.701Z,59104
2016-09-08T07:15:03.870Z,58176
2016-09-08T07:16:03.890Z,57856
2016-09-08T07:17:03.914Z,57664
2016-09-08T07:18:03.953Z,55424
2016-09-08T07:19:04.010Z,55328
2016-09-08T07:20:04.030Z,56384
2016-09-08T07:21:04.074Z,56000
2016-09-08T07:22:04.120Z,56288
2016-09-08T07:23:04.143Z,56704
2016-09-08T07:24:04.185Z,56000
2016-09-08T07:25:19.134Z,54976
2016-09-08T07:27:04.279Z,59872
2016-09-08T07:28:19.242Z,56448
2016-09-08T07:29:19.280Z,55872
2016-09-08T07:31:04.449Z,57632
2016-09-08T07:32:04.463Z,56960
2016-09-08T07:33:04.505Z,54880
2016-09-08T07:34:05.661Z,53568
2016-09-08T07:35:04.576Z,53440
2016-09-08T07:36:04.610Z,55296
2016-09-08T07:37:04.639Z,57184
2016-09-08T07:38:04.698Z,54144
2016-09-08T07:39:04.738Z,52576
2016-09-08T07:40:04.751Z,55936
2016-09-08T07:41:04.790Z,54176
2016-09-08T07:42:04.825Z,52224
2016-09-08T07:43:04.868Z,52928
2016-09-08T07:44:20.873Z,51968
2016-09-08T07:46:04.971Z,52320
2016-09-08T07:47:04.997Z,52352
2016-09-08T07:48:05.057Z,52416
2016-09-08T07:49:05.074Z,49792
2016-09-08T07:50:05.117Z,52704
2016-09-08T07:51:05.169Z,52704
2016-09-08T07:52:20.111Z,49216
2016-09-08T07:53:05.249Z,48736
2016-09-08T07:54:05.246Z,49376
2016-09-08T07:55:05.310Z,49312
2016-09-08T07:56:20.249Z,46976
2016-09-08T07:57:05.376Z,47552
2016-09-08T07:58:05.398Z,50656
2016-09-08T07:59:05.447Z,48992
2016-09-08T08:00:20.396Z,46656
2016-09-08T08:01:20.437Z,47840
2016-09-08T08:02:05.555Z,48256
2016-09-08T08:03:20.515Z,47744
2016-09-08T08:04:05.610Z,46272
2016-09-08T08:05:05.659Z,44640
2016-09-08T08:06:05.681Z,46720
2016-09-08T08:07:05.720Z,45120
2016-09-08T08:08:05.749Z,43968
2016-09-08T08:09:05.809Z,45888
2016-09-08T08:10:05.855Z,44864
2016-09-08T08:11:05.875Z,42560
2016-09-08T08:12:05.905Z,42368
2016-09-08T08:13:05.938Z,44160
2016-09-08T08:14:20.910Z,40288
2016-09-08T08:15:06.012Z,40192
2016-09-08T08:16:20.963Z,40128
2016-09-08T08:17:06.091Z,38496
2016-09-08T08:18:06.111Z,38144
2016-09-08T08:19:06.164Z,37312
2016-09-08T08:20:06.191Z,37120
2016-09-08T08:21:06.538Z,37952
2016-09-08T08:22:06.258Z,37632
2016-09-08T08:23:06.312Z,36320
2016-09-08T08:24:06.328Z,36064
2016-09-08T08:25:06.365Z,35904
2016-09-08T08:26:06.402Z,35808
2016-09-08T08:27:06.459Z,33216
2016-09-08T08:28:06.462Z,33824
2016-09-08T08:29:06.518Z,36000
2016-09-08T08:30:06.534Z,35168
2016-09-08T08:31:06.598Z,31904
2016-09-08T08:33:06.665Z,27680
2016-09-08T08:34:06.693Z,26048
2016-09-08T08:35:06.796Z,23808
2016-09-08T08:36:06.766Z,21408
2016-09-08T08:37:06.842Z,20480
2016-09-08T08:38:06.849Z,20288
2016-09-08T08:39:06.858Z,20096
2016-09-08T08:40:06.913Z,19872
2016-09-08T08:41:06.951Z,19840
2016-09-08T08:43:07.011Z,19712
2016-09-08T08:44:07.058Z,19584
2016-09-08T08:45:07.109Z,19392
2016-09-08T08:46:07.266Z,19328
2016-09-08T08:47:22.074Z,19264
2016-09-08T08:48:07.201Z,19232
2016-09-08T08:49:07.222Z,19072
2016-09-08T08:50:07.261Z,19040
2016-09-08T08:51:07.312Z,19008
2016-09-08T08:52:07.342Z,18880
2016-09-08T08:53:07.368Z,18720
2016-09-08T08:54:07.431Z,18560
2016-09-08T08:55:07.436Z,18272
2016-09-08T08:56:07.490Z,18112
2016-09-08T08:57:07.501Z,18176
2016-09-08T08:58:07.574Z,18176
2016-09-08T08:59:07.596Z,18144
2016-09-08T09:00:07.634Z,18016
2016-09-08T09:01:07.654Z,17952
2016-09-08T09:02:07.703Z,17824
2016-09-08T09:03:22.641Z,17824
2016-09-08T09:05:07.818Z,17760
2016-09-08T09:06:07.825Z,17600
2016-09-08T09:07:22.796Z,17504
2016-09-08T09:08:07.891Z,17296
2016-09-08T09:09:07.956Z,17228
2016-09-08T09:10:07.976Z,17136
2016-09-08T09:11:07.999Z,16992
2016-09-08T09:12:08.049Z,17016
2016-09-08T09:13:08.081Z,16900
2016-09-08T09:14:08.129Z,16788
2016-09-08T09:15:23.072Z,16628
2016-09-08T09:16:08.177Z,16556
2016-09-08T09:17:08.223Z,16472
2016-09-08T09:18:08.576Z,16440
2016-09-08T09:19:23.216Z,16300
2016-09-08T09:20:08.331Z,16268
2016-09-08T09:21:08.370Z,16308
2016-09-08T09:22:08.413Z,16256
2016-09-08T09:23:08.429Z,16132
2016-09-08T09:24:23.402Z,15956
2016-09-08T09:26:23.482Z,15824
2016-09-08T09:27:08.563Z,15748
2016-09-08T09:28:23.536Z,15640
2016-09-08T09:29:08.655Z,15524
2016-09-08T09:30:08.682Z,15348
2016-09-08T09:31:08.716Z,15388
2016-09-08T09:32:08.744Z,15404
2016-09-08T09:33:08.777Z,15408
2016-09-08T09:34:08.819Z,15276
2016-09-08T09:35:23.796Z,15160
2016-09-08T09:36:08.883Z,15128
2016-09-08T09:37:08.920Z,15004
2016-09-08T09:38:08.955Z,14824
2016-09-08T09:39:23.923Z,14664
2016-09-08T09:40:09.040Z,14504
2016-09-08T09:41:09.066Z,14504
2016-09-08T09:42:09.097Z,14556
2016-09-08T09:43:09.137Z,14556
2016-09-08T09:44:09.167Z,14348
2016-09-08T09:45:09.222Z,14300
2016-09-08T09:46:09.235Z,14256
2016-09-08T09:47:09.280Z,14236
2016-09-08T09:48:09.306Z,14276
2016-09-08T09:49:09.348Z,14280
2016-09-08T09:50:09.412Z,14204
2016-09-08T09:51:24.344Z,14096
2016-09-08T09:52:09.469Z,14112
2016-09-08T09:53:09.491Z,14104
2016-09-08T09:54:09.593Z,14016
2016-09-08T09:55:24.491Z,13924
2016-09-08T09:56:09.584Z,13896
2016-09-08T09:57:09.645Z,13872
2016-09-08T09:59:09.708Z,13712
2016-09-08T10:00:09.731Z,13672
2016-09-08T10:01:09.796Z,13560
2016-09-08T10:02:09.796Z,13512
2016-09-08T10:03:09.840Z,13472
2016-09-08T10:04:24.793Z,13440
2016-09-08T10:05:24.828Z,13324
2016-09-08T10:06:09.956Z,13300
2016-09-08T10:07:24.901Z,13288
2016-09-08T10:08:24.935Z,13236
2016-09-08T10:09:10.048Z,13188
2016-09-08T10:10:10.087Z,13092
2016-09-08T10:11:10.119Z,13000
2016-09-08T10:12:10.144Z,12880
2016-09-08T10:13:10.209Z,12828
2016-09-08T10:15:10.280Z,12660
2016-09-08T10:16:10.288Z,12564
2016-09-08T10:17:10.327Z,12512
2016-09-08T10:18:10.386Z,12468
2016-09-08T10:19:10.385Z,12460
2016-09-08T10:21:10.484Z,12276
2016-09-08T10:22:25.413Z,12176
2016-09-08T10:23:10.548Z,12140
2016-09-08T10:24:10.586Z,12084
2016-09-08T10:25:10.591Z,12036
2016-09-08T10:26:25.571Z,11948
2016-09-08T10:27:10.662Z,11884
2016-09-08T10:28:10.706Z,11808
2016-09-08T10:29:10.743Z,11720
2016-09-08T10:30:10.768Z,11636
2016-09-08T10:31:10.824Z,11548
2016-09-08T10:32:10.848Z,11468
2016-09-08T10:33:10.879Z,11428
2016-09-08T10:34:25.838Z,11368
2016-09-08T10:35:10.948Z,11332
2016-09-08T10:36:10.987Z,11236
2016-09-08T10:37:11.119Z,11180
2016-09-08T10:38:11.046Z,11104
2016-09-08T10:39:25.997Z,11052
2016-09-08T10:40:11.104Z,10952
2016-09-08T10:41:11.144Z,10868
2016-09-08T10:42:11.197Z,10764
2016-09-08T10:43:11.212Z,10464
2016-09-08T10:44:11.242Z,10080
2016-09-08T10:45:11.301Z,9756
2016-09-08T10:46:26.263Z,9388
2016-09-08T10:47:11.343Z,9180
2016-09-08T10:48:11.383Z,8860
2016-09-08T10:49:11.422Z,8604
2016-09-08T10:51:11.473Z,8120
2016-09-08T10:52:11.598Z,7936
2016-09-08T10:53:11.538Z,7760
2016-09-08T10:54:26.511Z,7532
2016-09-08T10:55:11.627Z,7428
2016-09-08T10:56:11.642Z,7296
2016-09-08T10:57:26.928Z,7080
2016-09-08T10:58:11.724Z,6948
2016-09-08T10:59:26.681Z,6808
2016-09-08T11:00:11.789Z,6768
2016-09-08T11:01:11.824Z,6604
2016-09-08T11:02:11.841Z,6516
2016-09-08T11:03:11.868Z,6380
2016-09-08T11:04:11.915Z,6292
2016-09-08T11:05:11.935Z,6180
2016-09-08T11:06:11.999Z,6084
2016-09-08T11:07:12.010Z,6016
2016-09-08T11:08:12.028Z,5944
2016-09-08T11:09:26.999Z,5836
2016-09-08T11:10:27.058Z,5740
2016-09-08T11:11:12.146Z,5700
2016-09-08T11:12:12.170Z,5636
2016-09-08T11:13:12.200Z,5572
2016-09-08T11:14:12.264Z,5504
2016-09-08T11:15:12.269Z,5492
2016-09-08T11:16:12.323Z,5440
2016-09-08T11:17:12.332Z,5396
2016-09-08T11:18:12.383Z,5356
2016-09-08T11:20:12.436Z,5328
2016-09-08T11:21:12.483Z,5260
2016-09-08T11:22:12.494Z,5264
2016-09-08T11:23:12.524Z,5256
2016-09-08T11:24:12.561Z,5260
2016-09-08T11:25:12.589Z,5232
2016-09-08T11:26:27.551Z,5224
2016-09-08T11:27:12.658Z,5260
2016-09-08T11:28:12.686Z,5272
2016-09-08T11:29:13.029Z,5252
2016-09-08T11:30:12.753Z,5244
2016-09-08T11:31:12.780Z,5256
2016-09-08T11:32:12.811Z,5264
2016-09-08T11:33:12.847Z,5240
2016-09-08T11:34:12.898Z,5240
2016-09-08T11:35:27.838Z,5252
2016-09-08T11:36:12.959Z,5256
2016-09-08T11:37:12.991Z,5240
2016-09-08T11:38:13.024Z,5236
2016-09-08T11:39:13.047Z,5224
2016-09-08T11:40:27.999Z,5236
2016-09-08T11:41:13.112Z,5240
2016-09-08T11:42:28.080Z,5244
2016-09-08T11:43:13.160Z,5240
2016-09-08T11:44:13.202Z,5248
2016-09-08T11:45:13.255Z,5260
2016-09-08T11:46:13.322Z,5304
2016-09-08T11:47:28.238Z,5280
2016-09-08T11:48:13.333Z,5248
2016-09-08T11:49:13.662Z,5244
2016-09-08T11:50:13.399Z,5224
2016-09-08T11:51:13.425Z,5204
2016-09-08T11:52:13.470Z,5212
2016-09-08T11:54:28.442Z,5256
2016-09-08T11:55:13.555Z,5276
2016-09-08T11:56:13.603Z,5268
2016-09-08T11:57:28.534Z,5256
2016-09-08T11:58:13.800Z,5252
2016-09-08T11:59:13.671Z,5244
2016-09-08T12:00:13.712Z,5228
2016-09-08T12:01:13.799Z,5212
2016-09-08T12:02:13.771Z,5184
2016-09-08T12:03:13.807Z,5216
2016-09-08T12:04:13.834Z,5220
2016-09-08T12:05:13.900Z,5228
2016-09-08T12:06:13.914Z,5232
2016-09-08T12:07:13.934Z,5236
2016-09-08T12:08:28.898Z,5232
2016-09-08T12:09:29.264Z,5204
2016-09-08T12:10:14.025Z,5196
2016-09-08T12:11:14.080Z,5196
2016-09-08T12:13:14.131Z,5176
2016-09-08T12:15:14.189Z,5184
2016-09-08T12:16:14.223Z,5180
2016-09-08T12:17:14.252Z,5176
2016-09-08T12:18:14.295Z,5192
2016-09-08T12:19:14.308Z,5216
2016-09-08T12:20:14.354Z,5224
2016-09-08T12:21:14.394Z,5228
2016-09-08T12:22:14.449Z,5200
2016-09-08T12:23:29.368Z,5208
2016-09-08T12:24:14.467Z,5224
2016-09-08T12:25:14.501Z,5224
2016-09-08T12:26:14.541Z,5248
2016-09-08T12:27:14.568Z,5204
2016-09-08T12:28:14.632Z,5212
2016-09-08T12:29:29.575Z,5240
2016-09-08T12:30:14.664Z,5244
2016-09-08T12:31:14.700Z,5264
2016-09-08T12:32:29.676Z,5252
2016-09-08T12:33:14.762Z,5232
2016-09-08T12:34:14.805Z,5240
2016-09-08T12:35:14.820Z,5276
2016-09-08T12:36:29.781Z,5280
2016-09-08T12:38:14.921Z,5232
2016-09-08T12:39:14.959Z,5244
2016-09-08T12:40:14.985Z,5244
2016-09-08T12:41:15.021Z,5176
2016-09-08T12:42:15.044Z,5212
2016-09-08T12:43:30.013Z,5232
2016-09-08T12:44:15.113Z,5236
2016-09-08T12:45:30.071Z,5256
2016-09-08T12:46:15.207Z,5244
2016-09-08T12:48:15.257Z,5244
2016-09-08T12:49:15.260Z,5240
2016-09-08T12:50:15.294Z,5248
2016-09-08T12:51:15.319Z,5288
2016-09-08T12:52:15.385Z,5304
2016-09-08T12:53:15.398Z,5320
2016-09-08T12:54:15.440Z,5316
2016-09-08T12:55:15.466Z,5300
2016-09-08T12:56:30.408Z,5288
2016-09-08T12:57:15.537Z,5288
2016-09-08T12:58:15.542Z,5304
2016-09-08T12:59:15.591Z,5304
2016-09-08T13:00:15.619Z,5316
2016-09-08T13:01:30.617Z,5288
2016-09-08T13:02:15.711Z,5228
2016-09-08T13:04:15.730Z,5248
2016-09-08T13:05:15.792Z,5204
2016-09-08T13:06:15.798Z,5248
2016-09-08T13:07:15.823Z,5316
2016-09-08T13:08:15.881Z,5296
2016-09-08T13:09:15.900Z,5312
2016-09-08T13:10:15.930Z,5304
2016-09-08T13:11:16.034Z,5264
2016-09-08T13:12:16.047Z,5288
2016-09-08T13:13:16.025Z,5308
2016-09-08T13:14:16.056Z,5324
2016-09-08T13:15:16.085Z,5368
2016-09-08T13:16:16.122Z,5304
2016-09-08T13:18:16.199Z,5264
2016-09-08T13:19:16.225Z,5280
2016-09-08T13:20:31.169Z,5288
2016-09-08T13:22:16.315Z,5280
2016-09-08T13:23:16.369Z,5280
2016-09-08T13:25:16.394Z,5252
2016-09-08T13:26:16.432Z,5240
2016-09-08T13:27:16.472Z,5216
2016-09-08T13:28:16.525Z,5276
2016-09-08T13:30:16.569Z,5280
2016-09-08T13:31:16.611Z,5300
2016-09-08T13:32:31.549Z,5288
2016-09-08T13:33:31.583Z,5244
2016-09-08T13:34:16.714Z,5248
2016-09-08T13:35:16.718Z,5224
2016-09-08T13:36:16.759Z,5220
2016-09-08T13:38:16.831Z,5216
2016-09-08T13:39:16.846Z,5228
2016-09-08T13:40:16.884Z,5220
2016-09-08T13:41:16.934Z,5256
2016-09-08T13:42:17.270Z,5232
2016-09-08T13:43:16.974Z,5240
2016-09-08T13:44:17.002Z,5228
2016-09-08T13:45:17.058Z,5224
2016-09-08T13:46:17.073Z,5252
2016-09-08T13:47:17.131Z,5256
2016-09-08T13:48:17.143Z,5252
2016-09-08T13:49:17.181Z,5248
2016-09-08T13:50:17.247Z,5252
2016-09-08T13:51:17.546Z,5208
2016-09-08T13:52:17.256Z,5192
2016-09-08T13:53:17.614Z,5204
2016-09-08T13:54:17.326Z,5212
2016-09-08T13:55:17.369Z,5180
2016-09-08T13:56:17.411Z,5180
2016-09-08T13:57:17.438Z,5180
2016-09-08T13:58:17.449Z,5220
2016-09-08T13:59:17.499Z,5228
2016-09-08T14:00:17.517Z,5200
2016-09-08T14:01:17.553Z,5160
2016-09-08T14:02:17.571Z,5136
2016-09-08T14:03:17.674Z,5172
2016-09-08T14:04:32.558Z,5128
2016-09-08T14:05:17.660Z,5168
2016-09-08T14:06:17.696Z,5052
2016-09-08T14:07:17.729Z,5120
2016-09-08T14:08:18.104Z,5112
2016-09-08T14:09:17.801Z,5092
2016-09-08T14:10:17.844Z,5104
2016-09-08T14:11:17.864Z,5116
2016-09-08T14:12:17.901Z,5136
2016-09-08T14:13:17.919Z,5156
2016-09-08T14:14:17.953Z,5172
2016-09-08T14:15:17.992Z,5132
2016-09-08T14:16:32.948Z,5168
2016-09-08T14:17:18.058Z,5156
2016-09-08T14:18:18.095Z,5144
2016-09-08T14:21:18.190Z,5044
2016-09-08T14:22:18.204Z,5048
2016-09-08T14:23:18.254Z,5032
2016-09-08T14:24:18.272Z,5040
2016-09-08T14:25:18.329Z,5028
2016-09-08T14:26:18.337Z,5028
2016-09-08T14:27:18.389Z,4996